• Join FlightAware (Why Join?)
  • Login
  • US Flag 
02:30PM EDT


 

Airport Tracker/Info


-or-


 

Live Flight TrackerFlight Track Log ✈ N706CJ ✈ 12-May-2013 ✈ KCGF - KBCT

Flight Track Log - Related Links

Times and Time Zones

All times are in EDT time to prevent confusion due to time zone crossing. See the N706CJ flight status page for this flight to view local times or setup timezone preferences in your user account.

Time Position Orientation Groundspeed Altitude Reporting Facility
EDT Latitude Longitude Course Direction KTS MPH feet Rate Location/Type
07:32PM 41.5539 -81.5017 172° South 174 200 1,600  Level Cleveland Center
07:33PM 41.4519 -81.4836 172° South 259 298 4,500 3,060 Climbing Cleveland Center
07:34PM 41.3900 -81.4244 144° Southeast 264 304 9,700 4,500 Climbing Cleveland Center
07:35PM 41.3153 -81.3656 149° Southeast 292 336 13,500 4,020 Climbing Cleveland Center
07:36PM 41.2322 -81.2983 149° Southeast 338 389 17,800 3,720 Climbing Cleveland Center
07:37PM 41.1347 -81.2256 151° Southeast 386 444 21,000 3,060 Climbing Cleveland Center
07:38PM 41.0347 -81.1997 169° South 401 461 24,000 2,640 Climbing Cleveland Center
07:39PM 40.9139 -81.2014 181° South 416 479 26,300 2,400 Climbing Cleveland Center
07:40PM 40.7867 -81.1975 179° South 446 513 28,900 2,640 Climbing Cleveland Center
07:41PM 40.6617 -81.1961 180° South 455 524 31,600 2,700 Climbing Cleveland Center
07:42PM 40.5428 -81.1950 180° South 449 517 34,400 2,340 Climbing Cleveland Center
07:43PM 40.4261 -81.1939 180° South 429 494 36,300 1,620 Climbing Cleveland Center
07:45PM 40.2275 -81.1925 180° South 407 468 38,800 1,320 Climbing Indianapolis Center
07:46PM 40.1150 -81.1917 180° South 401 461 39,900 540 Climbing Indianapolis Center
07:47PM 40.0008 -81.1911 180° South 405 466 40,000  Climbing Indianapolis Center
07:48PM 39.8681 -81.1908 180° South 423 487 40,000  Level Indianapolis Center
07:49PM 39.7469 -81.1883 179° South 431 496 40,000  Level Indianapolis Center
07:50PM 39.6267 -81.1881 180° South 431 496 40,000  Level Indianapolis Center
07:51PM 39.5042 -81.1867 179° South 437 503 40,000  Level Indianapolis Center
07:52PM 39.3833 -81.1853 179° South 435 501 40,000  Level Indianapolis Center
07:53PM 39.2606 -81.1856 180° South 438 504 40,000  Level Indianapolis Center
07:54PM 39.1375 -81.1836 179° South 439 505 40,000  Level Indianapolis Center
07:55PM 39.0144 -81.1831 180° South 440 506 40,000  Level Indianapolis Center
07:56PM 38.8908 -81.1811 179° South 439 505 40,000  Level Indianapolis Center
07:57PM 38.7661 -81.1800 180° South 440 506 40,000  Level Indianapolis Center
07:59PM 38.6428 -81.1806 180° South 438 504 40,000  Level Indianapolis Center
08:00PM 38.4942 -81.1794 180° South 439 505 40,000  Level Indianapolis Center
08:01PM 38.3692 -81.1778 179° South 442 509 40,000  Level Indianapolis Center
08:02PM 38.2442 -81.1775 180° South 442 509 40,000  Level Indianapolis Center
08:03PM 38.1225 -81.1764 180° South 441 507 40,000  Level Indianapolis Center
08:04PM 37.9989 -81.1753 180° South 442 509 40,000  Level Indianapolis Center
08:05PM 37.8753 -81.1742 180° South 441 507 40,000  Level Indianapolis Center
08:06PM 37.7439 -81.1722 179° South 438 504 40,000  Level Indianapolis Center
08:07PM 37.6236 -81.1719 180° South 443 510 40,000  Level Indianapolis Center
08:08PM 37.5025 -81.1719 180° South 448 516 40,000  Level Indianapolis Center
08:09PM 37.3617 -81.1700 179° South 437 503 40,000  Level Indianapolis Center
08:10PM 37.2458 -81.1694 180° South 431 496 40,000  Level Indianapolis Center
08:11PM 37.1328 -81.1683 180° South 422 486 40,000  Level Indianapolis Center
08:11PM 37.0633 -81.1725 183° South 439 505 40,000  Level Atlanta Center
08:12PM 36.9444 -81.1689 179° South 434 499 40,000  Level Atlanta Center
08:13PM 36.8256 -81.1681 180° South 429 494 40,000  Level Atlanta Center
08:14PM 36.7253 -81.1639 178° South 423 487 40,000  Level Atlanta Center
08:15PM 36.6044 -81.1631 180° South 423 487 40,000  Level Atlanta Center
08:16PM 36.4856 -81.1622 180° South 423 487 40,000  Level Atlanta Center
08:17PM 36.3667 -81.1614 180° South 431 496 40,000  Level Atlanta Center
08:18PM 36.2456 -81.1606 180° South 431 496 40,000  Level Atlanta Center
08:19PM 36.1308 -81.1594 180° South 426 490 40,000  Level Atlanta Center
08:20PM 36.0036 -81.1589 180° South 421 484 40,000  Level Atlanta Center
08:21PM 35.8847 -81.1606 181° South 421 484 40,000  Level Atlanta Center
08:22PM 35.7700 -81.1569 179° South 421 484 40,000  Level Atlanta Center
08:23PM 35.6550 -81.1533 179° South 430 495 40,000  Level Atlanta Center
08:24PM 35.5425 -81.1522 180° South 430 495 40,000  Level Atlanta Center
08:25PM 35.4258 -81.1561 182° South 419 482 40,000  Level Atlanta Center
08:26PM 35.3089 -81.1578 181° South 419 482 40,000  Level Atlanta Center
08:27PM 35.1919 -81.1567 180° South 419 482 40,000  Level Atlanta Center
08:28PM 35.0647 -81.1536 179° South 419 482 40,000  Level Atlanta Center
08:29PM 34.9478 -81.1550 181° South 419 482 40,000  Level Atlanta Center
08:32PM 34.6819 -81.1506 179° South 419 482 40,000  Level Jacksonville Center
08:33PM 34.5650 -81.1553 182° South 424 488 40,000  Level Jacksonville Center
08:34PM 34.4606 -81.1475 176° South 419 482 40,000  Level Jacksonville Center
08:35PM 34.3481 -81.1522 182° South 419 482 40,000  Level Jacksonville Center
08:36PM 34.2417 -81.1494 179° South 410 472 40,000  Level Jacksonville Center
08:37PM 34.1289 -81.1467 179° South 405 466 40,000  Level Jacksonville Center
08:38PM 34.0122 -81.1439 179° South 405 466 40,000  Level Jacksonville Center
08:39PM 33.9036 -81.1436 180° South 410 472 40,000  Level Jacksonville Center
08:40PM 33.7889 -81.1433 180° South 410 472 40,000  Level Jacksonville Center
08:41PM 33.6761 -81.1481 182° South 405 466 40,000  Level Jacksonville Center
08:42PM 33.5633 -81.1453 179° South 405 466 40,000  Level Jacksonville Center
08:43PM 33.4486 -81.1450 180° South 405 466 40,000  Level Jacksonville Center
08:44PM 33.3381 -81.1422 179° South 405 466 40,000  Level Jacksonville Center
08:45PM 33.2233 -81.1419 180° South 405 466 40,000  Level Jacksonville Center
08:46PM 33.1083 -81.1417 180° South 405 466 40,000  Level Jacksonville Center
08:47PM 32.9958 -81.1414 180° South 405 466 40,000  Level Jacksonville Center
08:48PM 32.8808 -81.1414 180° South 405 466 40,000  Level Jacksonville Center
08:49PM 32.7639 -81.1386 179° South 411 473 40,000  Level Jacksonville Center
08:50PM 32.6428 -81.1386 180° South 411 473 40,000  Level Jacksonville Center
08:51PM 32.5386 -81.1381 180° South 406 467 40,000  Level Jacksonville Center
08:52PM 32.4258 -81.1378 180° South 406 467 40,000  Level Jacksonville Center
08:53PM 32.3067 -81.1350 179° South 417 480 40,000  Level Jacksonville Center
08:54PM 32.1897 -81.1350 180° South 422 486 40,000  Level Jacksonville Center
08:55PM 32.0750 -81.1347 180° South 417 480 40,000  Level Jacksonville Center
08:56PM 31.9603 -81.1319 179° South 417 480 40,000  Level Jacksonville Center
08:57PM 31.8411 -81.1294 179° South 423 487 40,000  Level Jacksonville Center
08:58PM 31.7158 -81.1292 180° South 416 479 40,000  Level Jacksonville Center
08:59PM 31.6011 -81.1289 180° South 422 486 40,000  Level Jacksonville Center
09:00PM 31.4944 -81.1286 180° South 417 480 40,000  Level Jacksonville Center
09:01PM 31.3672 -81.1261 179° South 422 486 40,000  Level Jacksonville Center
09:02PM 31.2481 -81.1283 181° South 416 479 40,000  Level Jacksonville Center
09:03PM 31.1311 -81.1258 179° South 422 486 40,000  Level Jacksonville Center
09:04PM 31.0119 -81.1108 174° South 422 486 40,000  Level Jacksonville Center
09:05PM 30.8906 -81.0867 170° South 429 494 40,000  Level Jacksonville Center
09:06PM 30.7711 -81.0622 170° South 434 499 40,000  Level Jacksonville Center
09:07PM 30.6478 -81.0406 171° South 434 499 40,000  Level Jacksonville Center
09:08PM 30.5283 -81.0186 171° South 439 505 40,000  Level Jacksonville Center
09:09PM 30.4069 -80.9947 170° South 444 511 40,000  Level Jacksonville Center
09:10PM 30.3022 -80.9728 170° South 444 511 40,000  Level Jacksonville Center
09:11PM 30.1786 -80.9536 172° South 449 517 40,000  Level Jacksonville Center
09:12PM 30.0572 -80.9319 171° South 449 517 40,000  Level Jacksonville Center
09:13PM 29.9358 -80.9056 169° South 449 517 40,000  Level Jacksonville Center
09:14PM 29.8164 -80.8842 171° South 444 511 40,000  Level Jacksonville Center
09:15PM 29.6972 -80.8628 171° South 444 511 40,000  Level Jacksonville Center
09:16PM 29.5778 -80.8414 171° South 444 511 40,000  Level Jacksonville Center
09:17PM 29.4625 -80.8150 169° South 444 511 40,000  Level Jacksonville Center
09:18PM 29.3411 -80.7939 171° South 438 504 40,000 -1,920 Level Jacksonville Center
09:19PM 29.1967 -80.7714 172° South 435 501 36,000 -1,560 Descending Miami Center
09:20PM 29.0803 -80.7483 170° South 430 495 36,800  Climbing Miami Center
09:21PM 28.9667 -80.7111 164° South 425 489 36,000 -420 Descending Miami Center
09:22PM 28.8694 -80.6769 163° South 425 489 36,000  Level Miami Center
09:23PM 28.7539 -80.6328 161° South 430 495 36,000 -540 Level Miami Center
09:24PM 28.6236 -80.5906 164° South 438 504 35,000 -1,800 Descending Miami Center
09:25PM 28.5058 -80.5489 163° South 444 511 32,500 -2,580 Descending Miami Center
09:26PM 28.3858 -80.5047 162° South 444 511 29,900 -2,640 Descending Miami Center
09:27PM 28.2803 -80.4683 163° South 444 511 27,300 -2,700 Descending Miami Center
09:28PM 28.1519 -80.4242 163° South 438 504 24,500 -2,460 Descending Miami Center
09:29PM 28.0439 -80.4067 172° South 413 475 22,400 -2,040 Descending Miami Center
09:30PM 27.9356 -80.4033 178° South 399 459 20,500 -1,800 Descending Miami Center
09:31PM 27.8350 -80.4094 183° South 386 444 18,900 -1,680 Descending Miami Center
09:32PM 27.7350 -80.4064 178° South 374 430 17,200 -1,680 Descending Miami Center
09:33PM 27.6311 -80.3869 171° South 374 430 15,600 -1,740 Descending Miami Center
09:34PM 27.5194 -80.3483 163° South 386 444 13,800 -1,680 Descending Miami Center
09:35PM 27.4247 -80.2892 151° Southeast 386 444 12,300 -1,500 Descending Miami Center
09:36PM 27.3247 -80.2747 173° South 367 422 10,900 -1,140 Descending Miami Center
09:37PM 27.2394 -80.2628 173° South 351 404 10,100 -840 Descending Miami Center
09:38PM 27.1500 -80.2461 171° South 312 359 9,300 -900 Descending Miami Center
09:39PM 27.0711 -80.2322 171° South 293 337 8,300 -960 Descending Miami Center
09:40PM 27.0119 -80.1722 138° Southeast 278 320 7,400 -960 Descending Miami Center
09:41PM 26.9544 -80.1308 147° Southeast 278 320 6,400 -960 Descending Miami Center
09:42PM 26.8756 -80.1053 164° South 268 308 5,500 -1,020 Descending Miami Center
09:43PM 26.8136 -80.0758 157° South 248 285 4,400 -1,080 Descending Miami Center
09:44PM 26.7625 -80.0231 137° Southeast 248 285 3,400 -1,020 Descending Miami Center
09:46PM 26.5612 -80.0675 170° South  Level Estimated
09:53PM 26.3785 -80.1077 180° South  Level Estimated
09:54PM 26.3785 -80.1077 180° South  Level Estimated
09:55PM 26.3785 -80.1077 180° South  Level Estimated
09:56PM 26.3785 -80.1077 180° South  Level Estimated
09:57PM 26.3785 -80.1077 180° South  Level Estimated
09:58PM 26.3785 -80.1077 180° South  Level Estimated
09:59PM 26.3785 -80.1077 180° South  Level Estimated